sensor_id;sensor_type;location;lat;lon;timestamp;P1;durP1;ratioP1;P2;durP2;ratioP2
10571;SDS011;5334;48.928;12.704;2023-02-28T00:00:24;1999.90;;;999.90;;
10571;SDS011;5334;48.928;12.704;2023-02-28T00:02:50;1999.90;;;999.90;;
10571;SDS011;5334;48.928;12.704;2023-02-28T00:05:17;1999.90;;;999.90;;
10571;SDS011;5334;48.928;12.704;2023-02-28T00:07:45;1999.90;;;999.90;;
10571;SDS011;5334;48.928;12.704;2023-02-28T00:10:12;1999.90;;;999.90;;
10571;SDS011;5334;48.928;12.704;2023-02-28T00:12:39;1999.90;;;999.90;;
10571;SDS011;5334;48.928;12.704;2023-02-28T00:15:06;1999.90;;;999.90;;
10571;SDS011;5334;48.928;12.704;2023-02-28T00:17:33;1999.90;;;999.90;;
10571;SDS011;5334;48.928;12.704;2023-02-28T00:19:59;1999.90;;;999.90;;
10571;SDS011;5334;48.928;12.704;2023-02-28T00:22:29;1999.90;;;999.90;;
10571;SDS011;5334;48.928;12.704;2023-02-28T00:24:55;1999.90;;;999.90;;
10571;SDS011;5334;48.928;12.704;2023-02-28T00:27:20;1999.90;;;999.90;;
10571;SDS011;5334;48.928;12.704;2023-02-28T00:29:46;1999.90;;;999.90;;
10571;SDS011;5334;48.928;12.704;2023-02-28T00:32:12;1999.90;;;999.90;;
10571;SDS011;5334;48.928;12.704;2023-02-28T00:34:38;1999.90;;;999.90;;
10571;SDS011;5334;48.928;12.704;2023-02-28T00:37:07;1999.90;;;999.90;;
10571;SDS011;5334;48.928;12.704;2023-02-28T00:39:37;1999.90;;;999.90;;
10571;SDS011;5334;48.928;12.704;2023-02-28T00:42:03;1999.90;;;999.90;;
10571;SDS011;5334;48.928;12.704;2023-02-28T00:44:30;1999.90;;;999.90;;
10571;SDS011;5334;48.928;12.704;2023-02-28T00:46:57;1999.90;;;999.90;;
10571;SDS011;5334;48.928;12.704;2023-02-28T00:49:23;1999.90;;;999.90;;
10571;SDS011;5334;48.928;12.704;2023-02-28T00:51:49;1999.90;;;999.90;;
10571;SDS011;5334;48.928;12.704;2023-02-28T00:54:15;1999.90;;;999.90;;
10571;SDS011;5334;48.928;12.704;2023-02-28T00:56:41;1999.90;;;999.90;;
10571;SDS011;5334;48.928;12.704;2023-02-28T00:59:07;1999.90;;;999.90;;
10571;SDS011;5334;48.928;12.704;2023-02-28T01:01:33;1999.90;;;999.90;;
10571;SDS011;5334;48.928;12.704;2023-02-28T01:03:59;1999.90;;;999.90;;
10571;SDS011;5334;48.928;12.704;2023-02-28T01:06:25;1999.90;;;999.90;;
10571;SDS011;5334;48.928;12.704;2023-02-28T01:08:50;1999.90;;;999.90;;
10571;SDS011;5334;48.928;12.704;2023-02-28T01:11:16;1999.90;;;999.90;;
10571;SDS011;5334;48.928;12.704;2023-02-28T01:13:44;1999.90;;;999.90;;
10571;SDS011;5334;48.928;12.704;2023-02-28T01:16:11;1999.90;;;999.90;;
10571;SDS011;5334;48.928;12.704;2023-02-28T01:18:37;1999.90;;;999.90;;
10571;SDS011;5334;48.928;12.704;2023-02-28T01:21:07;1999.90;;;999.90;;
10571;SDS011;5334;48.928;12.704;2023-02-28T01:23:35;1999.90;;;999.90;;
10571;SDS011;5334;48.928;12.704;2023-02-28T01:26:08;1999.90;;;999.90;;
10571;SDS011;5334;48.928;12.704;2023-02-28T01:28:35;1999.90;;;999.90;;
10571;SDS011;5334;48.928;12.704;2023-02-28T01:31:01;1999.90;;;999.90;;
10571;SDS011;5334;48.928;12.704;2023-02-28T01:33:27;1999.90;;;999.90;;
10571;SDS011;5334;48.928;12.704;2023-02-28T01:38:47;1999.90;;;999.90;;
10571;SDS011;5334;48.928;12.704;2023-02-28T01:41:31;1999.90;;;999.90;;
10571;SDS011;5334;48.928;12.704;2023-02-28T01:46:24;1999.90;;;999.90;;
10571;SDS011;5334;48.928;12.704;2023-02-28T01:48:51;1999.90;;;999.90;;
10571;SDS011;5334;48.928;12.704;2023-02-28T01:51:34;1999.90;;;999.90;;
10571;SDS011;5334;48.928;12.704;2023-02-28T01:54:19;1999.90;;;999.90;;
10571;SDS011;5334;48.928;12.704;2023-02-28T01:56:55;1999.90;;;999.90;;
10571;SDS011;5334;48.928;12.704;2023-02-28T01:59:27;1999.90;;;999.90;;
10571;SDS011;5334;48.928;12.704;2023-02-28T02:01:59;1999.90;;;999.90;;
10571;SDS011;5334;48.928;12.704;2023-02-28T02:04:26;1999.90;;;999.90;;
10571;SDS011;5334;48.928;12.704;2023-02-28T02:06:59;1999.90;;;999.90;;
10571;SDS011;5334;48.928;12.704;2023-02-28T02:09:25;1999.90;;;999.90;;
10571;SDS011;5334;48.928;12.704;2023-02-28T02:11:50;1999.90;;;999.90;;
10571;SDS011;5334;48.928;12.704;2023-02-28T02:14:21;1999.90;;;999.90;;
10571;SDS011;5334;48.928;12.704;2023-02-28T02:17:21;1999.90;;;999.90;;
10571;SDS011;5334;48.928;12.704;2023-02-28T02:25:53;1999.90;;;999.90;;
10571;SDS011;5334;48.928;12.704;2023-02-28T02:36:48;1999.90;;;999.90;;
10571;SDS011;5334;48.928;12.704;2023-02-28T02:42:04;1999.90;;;999.90;;
10571;SDS011;5334;48.928;12.704;2023-02-28T02:44:41;1999.90;;;999.90;;
10571;SDS011;5334;48.928;12.704;2023-02-28T02:47:20;1999.90;;;999.90;;
10571;SDS011;5334;48.928;12.704;2023-02-28T02:49:55;1999.90;;;999.90;;
10571;SDS011;5334;48.928;12.704;2023-02-28T02:52:24;1999.90;;;999.90;;
10571;SDS011;5334;48.928;12.704;2023-02-28T02:54:56;1999.90;;;999.90;;
10571;SDS011;5334;48.928;12.704;2023-02-28T02:58:07;1999.90;;;999.90;;
10571;SDS011;5334;48.928;12.704;2023-02-28T03:00:19;1999.90;;;999.90;;
10571;SDS011;5334;48.928;12.704;2023-02-28T03:02:50;1999.90;;;999.90;;
10571;SDS011;5334;48.928;12.704;2023-02-28T03:05:19;1999.90;;;999.90;;
10571;SDS011;5334;48.928;12.704;2023-02-28T03:07:50;1999.90;;;999.90;;
10571;SDS011;5334;48.928;12.704;2023-02-28T03:10:26;1999.90;;;999.90;;
10571;SDS011;5334;48.928;12.704;2023-02-28T03:12:55;1999.90;;;999.90;;
10571;SDS011;5334;48.928;12.704;2023-02-28T03:15:52;1999.90;;;999.90;;
10571;SDS011;5334;48.928;12.704;2023-02-28T03:24:03;1999.90;;;999.90;;
10571;SDS011;5334;48.928;12.704;2023-02-28T03:26:42;1999.90;;;999.90;;
10571;SDS011;5334;48.928;12.704;2023-02-28T03:31:45;1999.90;;;999.90;;
10571;SDS011;5334;48.928;12.704;2023-02-28T03:34:24;1999.90;;;999.90;;
10571;SDS011;5334;48.928;12.704;2023-02-28T03:36:58;1999.90;;;999.90;;
10571;SDS011;5334;48.928;12.704;2023-02-28T03:39:31;1999.90;;;999.90;;
10571;SDS011;5334;48.928;12.704;2023-02-28T03:42:07;1999.90;;;999.90;;
10571;SDS011;5334;48.928;12.704;2023-02-28T03:44:44;1999.90;;;999.90;;
10571;SDS011;5334;48.928;12.704;2023-02-28T03:47:30;1999.90;;;999.90;;
10571;SDS011;5334;48.928;12.704;2023-02-28T03:50:08;1999.90;;;999.90;;
10571;SDS011;5334;48.928;12.704;2023-02-28T03:52:44;1999.90;;;999.90;;
10571;SDS011;5334;48.928;12.704;2023-02-28T03:55:26;1999.90;;;999.90;;
10571;SDS011;5334;48.928;12.704;2023-02-28T04:01:03;1999.90;;;999.90;;
10571;SDS011;5334;48.928;12.704;2023-02-28T04:03:36;1999.90;;;999.90;;
10571;SDS011;5334;48.928;12.704;2023-02-28T04:06:03;1999.90;;;999.90;;
10571;SDS011;5334;48.928;12.704;2023-02-28T04:08:30;1999.90;;;999.90;;
10571;SDS011;5334;48.928;12.704;2023-02-28T04:11:14;1999.90;;;999.90;;
10571;SDS011;5334;48.928;12.704;2023-02-28T04:13:44;1999.90;;;999.90;;
10571;SDS011;5334;48.928;12.704;2023-02-28T04:16:10;1999.90;;;999.90;;
10571;SDS011;5334;48.928;12.704;2023-02-28T04:18:40;1999.90;;;999.90;;
10571;SDS011;5334;48.928;12.704;2023-02-28T04:21:08;1999.90;;;999.90;;
10571;SDS011;5334;48.928;12.704;2023-02-28T04:23:34;1999.90;;;999.90;;
10571;SDS011;5334;48.928;12.704;2023-02-28T04:26:00;1999.90;;;999.90;;
10571;SDS011;5334;48.928;12.704;2023-02-28T04:28:26;1999.90;;;999.90;;
10571;SDS011;5334;48.928;12.704;2023-02-28T04:30:57;1999.90;;;999.90;;
10571;SDS011;5334;48.928;12.704;2023-02-28T04:33:28;1999.90;;;999.90;;
10571;SDS011;5334;48.928;12.704;2023-02-28T04:36:13;1999.90;;;999.90;;
10571;SDS011;5334;48.928;12.704;2023-02-28T04:38:39;1999.90;;;999.90;;
10571;SDS011;5334;48.928;12.704;2023-02-28T04:41:05;1999.90;;;999.90;;
10571;SDS011;5334;48.928;12.704;2023-02-28T04:43:31;1999.90;;;999.90;;
10571;SDS011;5334;48.928;12.704;2023-02-28T04:45:58;1999.90;;;999.90;;
10571;SDS011;5334;48.928;12.704;2023-02-28T04:48:28;1999.90;;;999.90;;
10571;SDS011;5334;48.928;12.704;2023-02-28T04:50:54;1999.90;;;999.90;;
10571;SDS011;5334;48.928;12.704;2023-02-28T04:53:20;1999.90;;;999.90;;
10571;SDS011;5334;48.928;12.704;2023-02-28T04:55:46;1999.90;;;999.90;;
10571;SDS011;5334;48.928;12.704;2023-02-28T04:58:14;1999.90;;;999.90;;
10571;SDS011;5334;48.928;12.704;2023-02-28T05:00:41;1999.90;;;999.90;;
10571;SDS011;5334;48.928;12.704;2023-02-28T05:03:06;1999.90;;;999.90;;
10571;SDS011;5334;48.928;12.704;2023-02-28T05:05:32;1999.90;;;999.90;;
10571;SDS011;5334;48.928;12.704;2023-02-28T05:07:58;1999.90;;;999.90;;
10571;SDS011;5334;48.928;12.704;2023-02-28T05:10:23;1999.90;;;999.90;;
10571;SDS011;5334;48.928;12.704;2023-02-28T05:12:49;1999.90;;;999.90;;
10571;SDS011;5334;48.928;12.704;2023-02-28T05:15:15;1999.90;;;999.90;;
10571;SDS011;5334;48.928;12.704;2023-02-28T05:17:41;1999.90;;;999.90;;
10571;SDS011;5334;48.928;12.704;2023-02-28T05:20:08;1999.90;;;999.90;;
10571;SDS011;5334;48.928;12.704;2023-02-28T05:22:36;1999.90;;;999.90;;
10571;SDS011;5334;48.928;12.704;2023-02-28T05:25:05;1999.90;;;999.90;;
10571;SDS011;5334;48.928;12.704;2023-02-28T05:27:32;1999.90;;;999.90;;
10571;SDS011;5334;48.928;12.704;2023-02-28T05:29:58;1999.90;;;999.90;;
10571;SDS011;5334;48.928;12.704;2023-02-28T05:32:24;1999.90;;;999.90;;
10571;SDS011;5334;48.928;12.704;2023-02-28T05:34:50;1999.90;;;999.90;;
10571;SDS011;5334;48.928;12.704;2023-02-28T05:37:15;1999.90;;;999.90;;
10571;SDS011;5334;48.928;12.704;2023-02-28T05:39:41;1999.90;;;999.90;;
10571;SDS011;5334;48.928;12.704;2023-02-28T05:42:07;1999.90;;;999.90;;
10571;SDS011;5334;48.928;12.704;2023-02-28T05:44:34;1999.90;;;999.90;;
10571;SDS011;5334;48.928;12.704;2023-02-28T05:47:00;1999.90;;;999.90;;
10571;SDS011;5334;48.928;12.704;2023-02-28T05:49:25;1999.90;;;999.90;;
10571;SDS011;5334;48.928;12.704;2023-02-28T05:51:51;1999.90;;;999.90;;
10571;SDS011;5334;48.928;12.704;2023-02-28T05:54:17;1999.90;;;999.90;;
10571;SDS011;5334;48.928;12.704;2023-02-28T05:56:42;1999.90;;;999.90;;
10571;SDS011;5334;48.928;12.704;2023-02-28T05:59:10;1999.90;;;999.90;;
10571;SDS011;5334;48.928;12.704;2023-02-28T06:01:40;1999.90;;;999.90;;
10571;SDS011;5334;48.928;12.704;2023-02-28T06:04:13;1999.90;;;999.90;;
10571;SDS011;5334;48.928;12.704;2023-02-28T06:06:45;1999.90;;;999.90;;
10571;SDS011;5334;48.928;12.704;2023-02-28T06:09:12;1999.90;;;999.90;;
10571;SDS011;5334;48.928;12.704;2023-02-28T06:11:38;1999.90;;;999.90;;
10571;SDS011;5334;48.928;12.704;2023-02-28T06:14:04;1999.90;;;999.90;;
10571;SDS011;5334;48.928;12.704;2023-02-28T06:16:31;1999.90;;;999.90;;
10571;SDS011;5334;48.928;12.704;2023-02-28T06:18:59;1999.90;;;999.90;;
10571;SDS011;5334;48.928;12.704;2023-02-28T06:21:26;1999.90;;;999.90;;
10571;SDS011;5334;48.928;12.704;2023-02-28T06:23:53;1999.90;;;999.90;;
10571;SDS011;5334;48.928;12.704;2023-02-28T06:26:19;1999.90;;;999.90;;
10571;SDS011;5334;48.928;12.704;2023-02-28T06:28:45;1999.90;;;999.90;;
10571;SDS011;5334;48.928;12.704;2023-02-28T06:31:14;1999.90;;;999.90;;
10571;SDS011;5334;48.928;12.704;2023-02-28T06:33:40;1999.90;;;999.90;;
10571;SDS011;5334;48.928;12.704;2023-02-28T06:36:07;1999.90;;;999.90;;
10571;SDS011;5334;48.928;12.704;2023-02-28T06:38:35;1999.90;;;999.90;;
10571;SDS011;5334;48.928;12.704;2023-02-28T06:41:01;1999.90;;;999.90;;
10571;SDS011;5334;48.928;12.704;2023-02-28T06:43:32;1999.90;;;999.90;;
10571;SDS011;5334;48.928;12.704;2023-02-28T06:46:01;1999.90;;;999.90;;
10571;SDS011;5334;48.928;12.704;2023-02-28T06:48:28;1999.90;;;999.90;;
10571;SDS011;5334;48.928;12.704;2023-02-28T06:53:32;1999.90;;;999.90;;
10571;SDS011;5334;48.928;12.704;2023-02-28T06:55:58;1999.90;;;999.90;;
10571;SDS011;5334;48.928;12.704;2023-02-28T06:58:24;1999.90;;;999.90;;
10571;SDS011;5334;48.928;12.704;2023-02-28T07:00:50;1999.90;;;999.90;;
10571;SDS011;5334;48.928;12.704;2023-02-28T07:03:17;1999.90;;;999.90;;
10571;SDS011;5334;48.928;12.704;2023-02-28T07:05:43;1999.90;;;999.90;;
10571;SDS011;5334;48.928;12.704;2023-02-28T07:08:10;1999.90;;;999.90;;
10571;SDS011;5334;48.928;12.704;2023-02-28T07:10:39;1999.90;;;999.90;;
10571;SDS011;5334;48.928;12.704;2023-02-28T07:13:06;1999.90;;;999.90;;
10571;SDS011;5334;48.928;12.704;2023-02-28T07:15:33;1999.90;;;999.90;;
10571;SDS011;5334;48.928;12.704;2023-02-28T07:17:59;1999.90;;;999.90;;
10571;SDS011;5334;48.928;12.704;2023-02-28T07:20:25;1999.90;;;999.90;;
10571;SDS011;5334;48.928;12.704;2023-02-28T07:22:51;1999.90;;;999.90;;
10571;SDS011;5334;48.928;12.704;2023-02-28T07:25:23;1999.90;;;999.90;;
10571;SDS011;5334;48.928;12.704;2023-02-28T07:27:49;1999.90;;;999.90;;
10571;SDS011;5334;48.928;12.704;2023-02-28T07:30:15;1999.90;;;999.90;;
10571;SDS011;5334;48.928;12.704;2023-02-28T07:32:41;1999.90;;;999.90;;
10571;SDS011;5334;48.928;12.704;2023-02-28T07:35:07;1999.90;;;999.90;;
10571;SDS011;5334;48.928;12.704;2023-02-28T07:37:33;1999.90;;;999.90;;
10571;SDS011;5334;48.928;12.704;2023-02-28T07:40:04;1999.90;;;999.90;;
10571;SDS011;5334;48.928;12.704;2023-02-28T07:42:33;1999.90;;;999.90;;
10571;SDS011;5334;48.928;12.704;2023-02-28T07:45:00;1999.90;;;999.90;;
10571;SDS011;5334;48.928;12.704;2023-02-28T07:47:26;1999.90;;;999.90;;
10571;SDS011;5334;48.928;12.704;2023-02-28T07:49:53;1999.90;;;999.90;;
10571;SDS011;5334;48.928;12.704;2023-02-28T07:52:19;1999.90;;;999.90;;
10571;SDS011;5334;48.928;12.704;2023-02-28T07:54:44;1999.90;;;999.90;;
10571;SDS011;5334;48.928;12.704;2023-02-28T07:57:10;1999.90;;;999.90;;
10571;SDS011;5334;48.928;12.704;2023-02-28T07:59:36;1999.90;;;999.90;;
10571;SDS011;5334;48.928;12.704;2023-02-28T08:02:01;1999.90;;;999.90;;
10571;SDS011;5334;48.928;12.704;2023-02-28T08:04:27;1999.90;;;999.90;;
10571;SDS011;5334;48.928;12.704;2023-02-28T08:06:56;1999.90;;;999.90;;
10571;SDS011;5334;48.928;12.704;2023-02-28T08:09:22;1999.90;;;999.90;;
10571;SDS011;5334;48.928;12.704;2023-02-28T08:11:47;1999.90;;;999.90;;
10571;SDS011;5334;48.928;12.704;2023-02-28T08:14:13;1999.90;;;999.90;;
10571;SDS011;5334;48.928;12.704;2023-02-28T08:16:39;1999.90;;;999.90;;
10571;SDS011;5334;48.928;12.704;2023-02-28T08:19:04;1999.90;;;999.90;;
10571;SDS011;5334;48.928;12.704;2023-02-28T08:21:30;1999.90;;;999.90;;
10571;SDS011;5334;48.928;12.704;2023-02-28T08:23:56;1999.90;;;999.90;;
10571;SDS011;5334;48.928;12.704;2023-02-28T08:26:22;1999.90;;;999.90;;
10571;SDS011;5334;48.928;12.704;2023-02-28T08:28:48;1999.90;;;999.90;;
10571;SDS011;5334;48.928;12.704;2023-02-28T08:31:14;1999.90;;;999.90;;
10571;SDS011;5334;48.928;12.704;2023-02-28T08:33:41;1999.90;;;999.90;;
10571;SDS011;5334;48.928;12.704;2023-02-28T08:36:09;1999.90;;;999.90;;
10571;SDS011;5334;48.928;12.704;2023-02-28T08:38:35;1999.90;;;999.90;;
10571;SDS011;5334;48.928;12.704;2023-02-28T08:41:03;1999.90;;;999.90;;
10571;SDS011;5334;48.928;12.704;2023-02-28T08:43:32;1999.90;;;999.90;;
10571;SDS011;5334;48.928;12.704;2023-02-28T08:45:58;1999.90;;;999.90;;
10571;SDS011;5334;48.928;12.704;2023-02-28T08:48:25;1999.90;;;999.90;;
10571;SDS011;5334;48.928;12.704;2023-02-28T08:50:58;1999.90;;;999.90;;
10571;SDS011;5334;48.928;12.704;2023-02-28T08:53:27;1999.90;;;999.90;;
10571;SDS011;5334;48.928;12.704;2023-02-28T08:55:57;1999.90;;;999.90;;
10571;SDS011;5334;48.928;12.704;2023-02-28T08:58:24;1999.90;;;999.90;;
10571;SDS011;5334;48.928;12.704;2023-02-28T09:00:50;1999.90;;;999.90;;
10571;SDS011;5334;48.928;12.704;2023-02-28T09:03:16;1999.90;;;999.90;;
10571;SDS011;5334;48.928;12.704;2023-02-28T09:05:51;1999.90;;;999.90;;
10571;SDS011;5334;48.928;12.704;2023-02-28T09:08:17;1999.90;;;999.90;;
10571;SDS011;5334;48.928;12.704;2023-02-28T09:10:43;1999.90;;;999.90;;
10571;SDS011;5334;48.928;12.704;2023-02-28T09:13:09;1999.90;;;999.90;;
10571;SDS011;5334;48.928;12.704;2023-02-28T09:15:36;1999.90;;;999.90;;
10571;SDS011;5334;48.928;12.704;2023-02-28T09:18:02;1999.90;;;999.90;;
10571;SDS011;5334;48.928;12.704;2023-02-28T09:20:28;1999.90;;;999.90;;
10571;SDS011;5334;48.928;12.704;2023-02-28T09:22:54;1999.90;;;999.90;;
10571;SDS011;5334;48.928;12.704;2023-02-28T09:25:20;1999.90;;;999.90;;
10571;SDS011;5334;48.928;12.704;2023-02-28T09:27:46;1999.90;;;999.90;;
10571;SDS011;5334;48.928;12.704;2023-02-28T09:30:12;1999.90;;;999.90;;
10571;SDS011;5334;48.928;12.704;2023-02-28T09:32:38;1999.90;;;999.90;;
10571;SDS011;5334;48.928;12.704;2023-02-28T09:35:04;1999.90;;;999.90;;
10571;SDS011;5334;48.928;12.704;2023-02-28T09:37:30;1999.90;;;999.90;;
10571;SDS011;5334;48.928;12.704;2023-02-28T09:39:56;1999.90;;;999.90;;
10571;SDS011;5334;48.928;12.704;2023-02-28T09:42:25;1999.90;;;999.90;;
10571;SDS011;5334;48.928;12.704;2023-02-28T09:45:00;1999.90;;;999.90;;
10571;SDS011;5334;48.928;12.704;2023-02-28T09:47:35;1999.90;;;999.90;;
10571;SDS011;5334;48.928;12.704;2023-02-28T09:50:51;1999.90;;;999.90;;
10571;SDS011;5334;48.928;12.704;2023-02-28T09:52:51;1999.90;;;999.90;;
10571;SDS011;5334;48.928;12.704;2023-02-28T09:55:24;1999.90;;;999.90;;
10571;SDS011;5334;48.928;12.704;2023-02-28T09:57:56;1999.90;;;999.90;;
10571;SDS011;5334;48.928;12.704;2023-02-28T10:03:25;1999.90;;;999.90;;
10571;SDS011;5334;48.928;12.704;2023-02-28T10:05:58;1999.90;;;999.90;;
10571;SDS011;5334;48.928;12.704;2023-02-28T10:11:28;1999.90;;;999.90;;
10571;SDS011;5334;48.928;12.704;2023-02-28T10:14:14;1999.90;;;999.90;;
10571;SDS011;5334;48.928;12.704;2023-02-28T10:16:53;1999.90;;;999.90;;
10571;SDS011;5334;48.928;12.704;2023-02-28T10:19:28;1999.90;;;999.90;;
10571;SDS011;5334;48.928;12.704;2023-02-28T10:22:03;1999.90;;;999.90;;
10571;SDS011;5334;48.928;12.704;2023-02-28T10:24:38;1999.90;;;999.90;;
10571;SDS011;5334;48.928;12.704;2023-02-28T10:27:15;1999.90;;;999.90;;
10571;SDS011;5334;48.928;12.704;2023-02-28T10:29:43;1999.90;;;999.90;;
10571;SDS011;5334;48.928;12.704;2023-02-28T10:32:11;1999.90;;;999.90;;
10571;SDS011;5334;48.928;12.704;2023-02-28T10:34:41;1999.90;;;999.90;;
10571;SDS011;5334;48.928;12.704;2023-02-28T10:37:07;1999.90;;;999.90;;
10571;SDS011;5334;48.928;12.704;2023-02-28T10:42:04;1999.90;;;999.90;;
10571;SDS011;5334;48.928;12.704;2023-02-28T10:44:43;1999.90;;;999.90;;
10571;SDS011;5334;48.928;12.704;2023-02-28T10:47:13;1999.90;;;999.90;;
10571;SDS011;5334;48.928;12.704;2023-02-28T10:49:46;1999.90;;;999.90;;
10571;SDS011;5334;48.928;12.704;2023-02-28T10:52:13;1999.90;;;999.90;;
10571;SDS011;5334;48.928;12.704;2023-02-28T10:54:39;1999.90;;;999.90;;
10571;SDS011;5334;48.928;12.704;2023-02-28T10:57:07;1999.90;;;999.90;;
10571;SDS011;5334;48.928;12.704;2023-02-28T10:59:36;1999.90;;;999.90;;
10571;SDS011;5334;48.928;12.704;2023-02-28T11:02:01;1999.90;;;999.90;;
10571;SDS011;5334;48.928;12.704;2023-02-28T11:07:04;1999.90;;;999.90;;
10571;SDS011;5334;48.928;12.704;2023-02-28T11:09:40;1999.90;;;999.90;;
10571;SDS011;5334;48.928;12.704;2023-02-28T11:12:18;1999.90;;;999.90;;
10571;SDS011;5334;48.928;12.704;2023-02-28T11:14:54;1999.90;;;999.90;;
10571;SDS011;5334;48.928;12.704;2023-02-28T11:17:44;1999.90;;;999.90;;
10571;SDS011;5334;48.928;12.704;2023-02-28T11:20:43;1999.90;;;999.90;;
10571;SDS011;5334;48.928;12.704;2023-02-28T11:23:15;1999.90;;;999.90;;
10571;SDS011;5334;48.928;12.704;2023-02-28T11:25:46;1999.90;;;999.90;;
10571;SDS011;5334;48.928;12.704;2023-02-28T11:36:19;1999.90;;;999.90;;
10571;SDS011;5334;48.928;12.704;2023-02-28T11:38:52;1999.90;;;999.90;;
10571;SDS011;5334;48.928;12.704;2023-02-28T11:44:20;1999.90;;;999.90;;
10571;SDS011;5334;48.928;12.704;2023-02-28T11:47:21;1999.90;;;999.90;;
10571;SDS011;5334;48.928;12.704;2023-02-28T11:52:57;1999.90;;;999.90;;
10571;SDS011;5334;48.928;12.704;2023-02-28T12:06:01;1999.90;;;999.90;;
10571;SDS011;5334;48.928;12.704;2023-02-28T12:11:36;1999.90;;;999.90;;
10571;SDS011;5334;48.928;12.704;2023-02-28T12:27:37;1999.90;;;999.90;;
10571;SDS011;5334;48.928;12.704;2023-02-28T12:35:35;1999.90;;;999.90;;
10571;SDS011;5334;48.928;12.704;2023-02-28T12:38:10;1999.90;;;999.90;;
10571;SDS011;5334;48.928;12.704;2023-02-28T12:40:56;1339.10;;;672.20;;
10571;SDS011;5334;48.928;12.704;2023-02-28T12:43:46;1339.80;;;672.87;;
10571;SDS011;5334;48.928;12.704;2023-02-28T12:46:32;1339.30;;;672.37;;
10571;SDS011;5334;48.928;12.704;2023-02-28T12:49:06;21.93;;;21.00;;
10571;SDS011;5334;48.928;12.704;2023-02-28T12:51:35;1999.90;;;999.90;;
10571;SDS011;5334;48.928;12.704;2023-02-28T12:56:42;1999.90;;;999.90;;
10571;SDS011;5334;48.928;12.704;2023-02-28T13:10:03;19.47;;;18.67;;
10571;SDS011;5334;48.928;12.704;2023-02-28T13:12:31;1999.90;;;999.90;;
10571;SDS011;5334;48.928;12.704;2023-02-28T13:15:19;1999.90;;;999.90;;
10571;SDS011;5334;48.928;12.704;2023-02-28T13:17:56;1999.90;;;999.90;;
10571;SDS011;5334;48.928;12.704;2023-02-28T13:20:25;1999.90;;;999.90;;
10571;SDS011;5334;48.928;12.704;2023-02-28T13:22:54;1999.90;;;999.90;;
10571;SDS011;5334;48.928;12.704;2023-02-28T13:27:51;1999.90;;;999.90;;
10571;SDS011;5334;48.928;12.704;2023-02-28T13:38:34;1999.90;;;999.90;;
10571;SDS011;5334;48.928;12.704;2023-02-28T13:46:25;1999.90;;;999.90;;
10571;SDS011;5334;48.928;12.704;2023-02-28T13:48:50;1999.90;;;999.90;;
10571;SDS011;5334;48.928;12.704;2023-02-28T13:59:43;1999.90;;;999.90;;
10571;SDS011;5334;48.928;12.704;2023-02-28T14:02:33;1999.90;;;999.90;;
10571;SDS011;5334;48.928;12.704;2023-02-28T14:05:05;1999.90;;;999.90;;
10571;SDS011;5334;48.928;12.704;2023-02-28T14:07:41;1999.90;;;999.90;;
10571;SDS011;5334;48.928;12.704;2023-02-28T14:10:23;1999.90;;;999.90;;
10571;SDS011;5334;48.928;12.704;2023-02-28T14:12:59;1999.90;;;999.90;;
10571;SDS011;5334;48.928;12.704;2023-02-28T14:20:42;1999.90;;;999.90;;
10571;SDS011;5334;48.928;12.704;2023-02-28T14:23:14;1999.90;;;999.90;;
10571;SDS011;5334;48.928;12.704;2023-02-28T14:31:36;1999.90;;;999.90;;
10571;SDS011;5334;48.928;12.704;2023-02-28T14:34:05;1999.90;;;999.90;;
10571;SDS011;5334;48.928;12.704;2023-02-28T14:36:44;1999.90;;;999.90;;
10571;SDS011;5334;48.928;12.704;2023-02-28T14:41:37;18.83;;;18.03;;
10571;SDS011;5334;48.928;12.704;2023-02-28T14:44:37;15.93;;;15.23;;
10571;SDS011;5334;48.928;12.704;2023-02-28T14:47:00;17.57;;;16.87;;
10571;SDS011;5334;48.928;12.704;2023-02-28T14:52:03;1999.90;;;999.90;;
10571;SDS011;5334;48.928;12.704;2023-02-28T14:54:51;1338.13;;;671.27;;
10571;SDS011;5334;48.928;12.704;2023-02-28T14:59:56;18.37;;;17.57;;
10571;SDS011;5334;48.928;12.704;2023-02-28T15:02:35;40.10;;;38.37;;
10571;SDS011;5334;48.928;12.704;2023-02-28T15:05:50;1338.93;;;671.97;;
10571;SDS011;5334;48.928;12.704;2023-02-28T15:08:00;13.87;;;13.27;;
10571;SDS011;5334;48.928;12.704;2023-02-28T15:11:27;1999.90;;;999.90;;
10571;SDS011;5334;48.928;12.704;2023-02-28T15:13:51;23.90;;;22.90;;
10571;SDS011;5334;48.928;12.704;2023-02-28T15:16:20;18.53;;;17.73;;
10571;SDS011;5334;48.928;12.704;2023-02-28T15:18:55;30.03;;;28.57;;
10571;SDS011;5334;48.928;12.704;2023-02-28T15:21:30;20.20;;;19.37;;
10571;SDS011;5334;48.928;12.704;2023-02-28T15:24:02;23.70;;;22.53;;
10571;SDS011;5334;48.928;12.704;2023-02-28T15:26:33;1999.90;;;999.90;;
10571;SDS011;5334;48.928;12.704;2023-02-28T15:29:17;14.73;;;14.13;;
10571;SDS011;5334;48.928;12.704;2023-02-28T15:32:05;15.07;;;14.47;;
10571;SDS011;5334;48.928;12.704;2023-02-28T15:34:36;16.43;;;15.73;;
10571;SDS011;5334;48.928;12.704;2023-02-28T15:43:13;13.83;;;12.93;;
10571;SDS011;5334;48.928;12.704;2023-02-28T15:45:45;15.63;;;14.97;;
10571;SDS011;5334;48.928;12.704;2023-02-28T15:48:20;14.27;;;13.67;;
10571;SDS011;5334;48.928;12.704;2023-02-28T15:50:57;19.73;;;18.90;;
10571;SDS011;5334;48.928;12.704;2023-02-28T15:53:28;20.27;;;19.37;;
10571;SDS011;5334;48.928;12.704;2023-02-28T15:55:58;17.00;;;16.20;;
10571;SDS011;5334;48.928;12.704;2023-02-28T15:58:26;12.80;;;12.23;;
10571;SDS011;5334;48.928;12.704;2023-02-28T16:01:00;11.30;;;10.70;;
10571;SDS011;5334;48.928;12.704;2023-02-28T16:03:35;11.07;;;10.57;;
10571;SDS011;5334;48.928;12.704;2023-02-28T16:08:47;43.67;;;41.73;;
10571;SDS011;5334;48.928;12.704;2023-02-28T16:11:16;15.20;;;14.50;;
10571;SDS011;5334;48.928;12.704;2023-02-28T16:13:42;20.60;;;19.70;;
10571;SDS011;5334;48.928;12.704;2023-02-28T16:16:08;27.13;;;25.90;;
10571;SDS011;5334;48.928;12.704;2023-02-28T16:18:39;19.00;;;18.20;;
10571;SDS011;5334;48.928;12.704;2023-02-28T16:21:05;23.90;;;22.77;;
10571;SDS011;5334;48.928;12.704;2023-02-28T16:23:30;17.47;;;16.43;;
10571;SDS011;5334;48.928;12.704;2023-02-28T16:25:56;12.20;;;11.67;;
10571;SDS011;5334;48.928;12.704;2023-02-28T16:28:26;19.73;;;18.83;;
10571;SDS011;5334;48.928;12.704;2023-02-28T16:30:59;17.20;;;16.30;;
10571;SDS011;5334;48.928;12.704;2023-02-28T16:33:28;12.37;;;11.83;;
10571;SDS011;5334;48.928;12.704;2023-02-28T16:35:54;13.90;;;13.07;;
10571;SDS011;5334;48.928;12.704;2023-02-28T16:38:19;12.70;;;12.03;;
10571;SDS011;5334;48.928;12.704;2023-02-28T16:40:46;18.93;;;18.03;;
10571;SDS011;5334;48.928;12.704;2023-02-28T16:43:16;11.93;;;11.43;;
10571;SDS011;5334;48.928;12.704;2023-02-28T16:45:44;13.47;;;12.90;;